| time (UTC) | temp F | wind direction | speed MPH | gust MPH | rain 1hr in | rain 24hr in | rain mn in | humidity % | barometer mb |
| 20260508113044 | 48 | 221 | 8.0 | 16.0 | 0.00 | 0.00 | 0.00 | 41 | 945.6 |
| 20260508111521 | 49 | 261 | 9.0 | 16.0 | 0.00 | 0.00 | 0.00 | 38 | 945.5 |
| 20260508110020 | 49 | 253 | 6.0 | 12.0 | 0.00 | 0.00 | 0.00 | 38 | 945.6 |
| 20260508104559 | 49 | 247 | 6.0 | 14.0 | 0.00 | 0.00 | 0.00 | 39 | 945.4 |
| 20260508103034 | 48 | 298 | 8.0 | 11.0 | 0.00 | 0.00 | 0.00 | 40 | 945.4 |
| 20260508101511 | 48 | 263 | 8.0 | 12.0 | 0.00 | 0.00 | 0.00 | 40 | 945.4 |
| 20260508100013 | 49 | 265 | 4.0 | 8.0 | 0.00 | 0.00 | 0.00 | 39 | 945.3 |
| 20260508094557 | 49 | 281 | 0.0 | 3.0 | 0.00 | 0.00 | 0.00 | 39 | 945.2 |
| 20260508093031 | 50 | 275 | 0.0 | 3.0 | 0.00 | 0.00 | 0.00 | 37 | 945.1 |
| 20260508091509 | 49 | 251 | 0.0 | 2.0 | 0.00 | 0.00 | 0.00 | 37 | 945.1 |
| 20260508090011 | 49 | 251 | 0.0 | 1.0 | 0.00 | 0.00 | 0.00 | 38 | 945.1 |
| 20260508084539 | 49 | 251 | 0.0 | 0.0 | 0.00 | 0.00 | 0.00 | 38 | 945.1 |
| 20260508083029 | 49 | 251 | 2.0 | 4.0 | 0.00 | 0.00 | 0.00 | 38 | 945.1 |
| 20260508081559 | 50 | 238 | 0.0 | 2.0 | 0.00 | 0.00 | 0.00 | 37 | 945.2 |
| 20260508080058 | 51 | 269 | 1.0 | 5.0 | 0.00 | 0.00 | 0.00 | 36 | 945.2 |
| 20260508074540 | 51 | 273 | 3.0 | 7.0 | 0.00 | 0.00 | 0.00 | 35 | 945.2 |
| 20260508073015 | 51 | 267 | 3.0 | 8.0 | 0.00 | 0.00 | 0.00 | 34 | 945.2 |
| 20260508071555 | 51 | 285 | 0.0 | 6.0 | 0.00 | 0.00 | 0.00 | 34 | 945.3 |
| 20260508070029 | 52 | 248 | 4.0 | 10.0 | 0.00 | 0.00 | 0.00 | 33 | 945.2 |
| 20260508064520 | 53 | 277 | 3.0 | 6.0 | 0.00 | 0.00 | 0.00 | 32 | 945.3 |
| 20260508063138 | 54 | 229 | 0.0 | 4.0 | 0.00 | 0.00 | 0.00 | 28 | 945.4 |
| 20260508061532 | 55 | 227 | 5.0 | 9.0 | 0.00 | 0.00 | 0.00 | 28 | 945.4 |
| 20260508060024 | 55 | 212 | 4.0 | 9.0 | 0.00 | 0.00 | 0.00 | 29 | 945.4 |
| 20260508054600 | 55 | 240 | 6.0 | 15.0 | 0.00 | 0.00 | 0.00 | 29 | 945.4 |
| 20260508054508 | 55 | 222 | 6.0 | 15.0 | 0.00 | 0.00 | 0.00 | 29 | 945.4 |
| 20260508053051 | 56 | 245 | 8.0 | 17.0 | 0.00 | 0.00 | 0.00 | 28 | 945.4 |
| 20260508051520 | 57 | 263 | 8.0 | 18.0 | 0.00 | 0.00 | 0.00 | 28 | 945.5 |
| 20260508050052 | 57 | 243 | 9.0 | 20.0 | 0.00 | 0.00 | 0.00 | 27 | 945.5 |
| 20260508044532 | 57 | 263 | 12.0 | 20.0 | 0.00 | 0.00 | 0.00 | 26 | 945.7 |
| 20260508043032 | 57 | 242 | 11.0 | 23.0 | 0.00 | 0.00 | 0.00 | 26 | 945.7 |
| 20260508041518 | 56 | 221 | 9.0 | 15.0 | 0.00 | 0.00 | 0.00 | 27 | 945.8 |
| 20260508040045 | 57 | 214 | 14.0 | 25.0 | 0.00 | 0.00 | 0.00 | 26 | 945.8 |
| 20260508034528 | 57 | 218 | 13.0 | 20.0 | 0.00 | 0.00 | 0.00 | 27 | 945.7 |
| 20260508033022 | 57 | 219 | 11.0 | 21.0 | 0.00 | 0.00 | 0.00 | 27 | 945.6 |
| 20260508031508 | 57 | 208 | 10.0 | 22.0 | 0.00 | 0.00 | 0.00 | 26 | 945.4 |
| 20260508030048 | 58 | 215 | 15.0 | 22.0 | 0.00 | 0.00 | 0.00 | 25 | 945.2 |
| 20260508024525 | 59 | 254 | 13.0 | 19.0 | 0.00 | 0.00 | 0.00 | 25 | 945.2 |
| 20260508023100 | 59 | 242 | 16.0 | 23.0 | 0.00 | 0.00 | 0.00 | 23 | 944.9 |
| 20260508023001 | 59 | 212 | 15.0 | 23.0 | 0.00 | 0.00 | 0.00 | 23 | 945.0 |
| 20260508021556 | 60 | 238 | 15.0 | 24.0 | 0.00 | 0.00 | 0.00 | 23 | 944.9 |
| 20260508021504 | 60 | 229 | 15.0 | 24.0 | 0.00 | 0.00 | 0.00 | 23 | 944.9 |
| 20260508020106 | 61 | 235 | 16.0 | 26.0 | 0.00 | 0.00 | 0.00 | 22 | 944.9 |
| 20260508014540 | 61 | 226 | 14.0 | 23.0 | 0.00 | 0.00 | 0.00 | 23 | 944.8 |
| 20260508013016 | 62 | 244 | 17.0 | 26.0 | 0.00 | 0.00 | 0.00 | 23 | 944.7 |
| 20260508011554 | 62 | 195 | 15.0 | 22.0 | 0.00 | 0.00 | 0.00 | 22 | 944.9 |
| 20260508010038 | 62 | 245 | 14.0 | 27.0 | 0.00 | 0.00 | 0.00 | 21 | 944.7 |
| 20260508004527 | 63 | 244 | 13.0 | 25.0 | 0.00 | 0.00 | 0.00 | 21 | 944.9 |
| 20260508003012 | 63 | 244 | 14.0 | 23.0 | 0.00 | 0.00 | 0.00 | 20 | 944.9 |
| 20260508001545 | 63 | 277 | 14.0 | 25.0 | 0.00 | 0.00 | 0.00 | 20 | 945.2 |
| 20260508000025 | 63 | 231 | 12.0 | 24.0 | 0.00 | 0.00 | 0.00 | 20 | 945.1 |
| 20260507234514 | 63 | 219 | 15.0 | 26.0 | 0.00 | 0.00 | 0.00 | 18 | 945.3 |
| 20260507233012 | 63 | 218 | 16.0 | 25.0 | 0.00 | 0.00 | 0.00 | 17 | 945.2 |
| 20260507231504 | 63 | 237 | 16.0 | 29.0 | 0.00 | 0.00 | 0.00 | 19 | 945.2 |
| 20260507230057 | 63 | 254 | 15.0 | 27.0 | 0.00 | 0.00 | 0.00 | 22 | 945.3 |
| 20260507224530 | 63 | 217 | 15.0 | 27.0 | 0.00 | 0.00 | 0.00 | 22 | 945.5 |
| 20260507223207 | 63 | 207 | 14.0 | 23.0 | 0.00 | 0.00 | 0.00 | 23 | 945.5 |
| 20260507223004 | 63 | 256 | 14.0 | 24.0 | 0.00 | 0.00 | 0.00 | 23 | 945.6 |
| 20260507221557 | 63 | 268 | 13.0 | 29.0 | 0.00 | 0.00 | 0.00 | 23 | 945.7 |
| 20260507221501 | 63 | 227 | 14.0 | 29.0 | 0.00 | 0.00 | 0.00 | 24 | 945.7 |
| 20260507220044 | 63 | 228 | 12.0 | 23.0 | 0.00 | 0.00 | 0.00 | 21 | 945.9 |
| 20260507214523 | 63 | 275 | 14.0 | 29.0 | 0.00 | 0.00 | 0.00 | 22 | 946.1 |
| 20260507213139 | 63 | 275 | 17.0 | 26.0 | 0.00 | 0.00 | 0.00 | 24 | 946.1 |
| 20260507211540 | 62 | 240 | 15.0 | 30.0 | 0.00 | 0.00 | 0.00 | 27 | 946.3 |
| 20260507210046 | 61 | 254 | 18.0 | 33.0 | 0.00 | 0.00 | 0.00 | 31 | 946.5 |
| 20260507204540 | 59 | 232 | 18.0 | 28.0 | 0.00 | 0.00 | 0.00 | 31 | 946.6 |
| 20260507203032 | 59 | 223 | 18.0 | 26.0 | 0.00 | 0.00 | 0.00 | 36 | 946.6 |
| 20260507201619 | 60 | 266 | 17.0 | 26.0 | 0.00 | 0.00 | 0.00 | 33 | 946.6 |
| 20260507200051 | 60 | 247 | 18.0 | 29.0 | 0.00 | 0.00 | 0.00 | 36 | 946.7 |
| 20260507194511 | 60 | 261 | 16.0 | 28.0 | 0.00 | 0.00 | 0.00 | 31 | 946.6 |
| 20260507193057 | 61 | 223 | 16.0 | 26.0 | 0.00 | 0.00 | 0.00 | 31 | 946.6 |
| 20260507193004 | 61 | 220 | 16.0 | 27.0 | 0.00 | 0.00 | 0.00 | 31 | 946.6 |
| 20260507191600 | 61 | 216 | 16.0 | 26.0 | 0.00 | 0.00 | 0.00 | 31 | 946.8 |
| 20260507190053 | 60 | 254 | 19.0 | 29.0 | 0.00 | 0.00 | 0.00 | 36 | 947.2 |
| 20260507184530 | 60 | 265 | 17.0 | 30.0 | 0.00 | 0.00 | 0.00 | 36 | 947.2 |
| 20260507183008 | 62 | 258 | 15.0 | 27.0 | 0.00 | 0.00 | 0.00 | 32 | 947.4 |
| 20260507181544 | 61 | 264 | 14.0 | 25.0 | 0.00 | 0.00 | 0.00 | 34 | 947.2 |
| 20260507180019 | 61 | 252 | 16.0 | 26.0 | 0.00 | 0.00 | 0.00 | 36 | 947.4 |
| 20260507174603 | 60 | 243 | 14.0 | 26.0 | 0.00 | 0.00 | 0.00 | 41 | 947.2 |
| 20260507173040 | 60 | 295 | 14.0 | 21.0 | 0.00 | 0.00 | 0.00 | 38 | 947.5 |
| 20260507171513 | 60 | 244 | 13.0 | 21.0 | 0.00 | 0.00 | 0.00 | 42 | 947.7 |
| 20260507170052 | 60 | 259 | 9.0 | 20.0 | 0.00 | 0.00 | 0.00 | 39 | 948.0 |
| 20260507164527 | 59 | 196 | 9.0 | 12.0 | 0.00 | 0.00 | 0.00 | 37 | 948.1 |
| 20260507163008 | 57 | 123 | 5.0 | 11.0 | 0.00 | 0.00 | 0.00 | 38 | 948.3 |
| 20260507161550 | 57 | 182 | 5.0 | 11.0 | 0.00 | 0.00 | 0.00 | 39 | 948.4 |
| 20260507160022 | 56 | 188 | 5.0 | 13.0 | 0.00 | 0.00 | 0.00 | 37 | 948.5 |
| 20260507154556 | 54 | 135 | 8.0 | 13.0 | 0.00 | 0.00 | 0.00 | 40 | 948.8 |
| 20260507154504 | 54 | 125 | 8.0 | 13.0 | 0.00 | 0.00 | 0.00 | 41 | 948.8 |
| 20260507153036 | 54 | 140 | 6.0 | 13.0 | 0.00 | 0.00 | 0.00 | 41 | 948.9 |
| 20260507151514 | 53 | 131 | 9.0 | 14.0 | 0.00 | 0.00 | 0.00 | 39 | 949.0 |
| 20260507150052 | 51 | 111 | 12.0 | 17.0 | 0.00 | 0.00 | 0.00 | 40 | 949.0 |
| 20260507144535 | 50 | 85 | 9.0 | 18.0 | 0.00 | 0.00 | 0.00 | 41 | 949.2 |
| 20260507143027 | 49 | 96 | 11.0 | 19.0 | 0.00 | 0.00 | 0.00 | 40 | 949.2 |
| 20260507141527 | 49 | 99 | 10.0 | 16.0 | 0.00 | 0.00 | 0.00 | 41 | 949.1 |
| 20260507140036 | 47 | 96 | 11.0 | 18.0 | 0.00 | 0.00 | 0.00 | 44 | 949.1 |
| 20260507134531 | 47 | 130 | 9.0 | 16.0 | 0.00 | 0.00 | 0.00 | 43 | 949.1 |
| 20260507133031 | 47 | 98 | 9.0 | 17.0 | 0.00 | 0.00 | 0.00 | 43 | 949.1 |
| 20260507131533 | 47 | 117 | 12.0 | 19.0 | 0.00 | 0.00 | 0.00 | 43 | 948.9 |
| 20260507130054 | 47 | 111 | 14.0 | 23.0 | 0.00 | 0.00 | 0.00 | 43 | 948.8 |
| 20260507124545 | 47 | 109 | 12.0 | 20.0 | 0.00 | 0.00 | 0.00 | 44 | 948.8 |
| 20260507123040 | 47 | 131 | 14.0 | 20.0 | 0.00 | 0.00 | 0.00 | 44 | 948.8 |
| 20260507121538 | 47 | 150 | 13.0 | 21.0 | 0.00 | 0.00 | 0.00 | 43 | 949.0 |
| 20260507120037 | 47 | 94 | 16.0 | 24.0 | 0.00 | 0.00 | 0.00 | 42 | 949.0 |
| 20260507114527 | 47 | 101 | 13.0 | 18.0 | 0.00 | 0.00 | 0.00 | 42 | 949.2 |